Time;durP1;ratioP1;P1;durP2;ratioP2;P2;SDS_P1;SDS_P2;PMS_P1;PMS_P2;Temp;Humidity;BMP_temperature;BMP_pressure;BME280_temperature;BME280_humidity;BME280_pressure;Samples;Min_cycle;Max_cycle;Signal;HPM_P1;HPM_P2
2023/05/13 00:01:15;;;;;;;4.00;3.70;;;14.30;89.20;;;;;;5032681;28;20669;-90
2023/05/13 00:03:41;;;;;;;4.50;4.10;;;14.30;89.10;;;;;;5031607;28;20294;-90
2023/05/13 00:06:07;;;;;;;4.53;4.13;;;14.20;89.70;;;;;;5031887;28;20698;-88
2023/05/13 00:08:33;;;;;;;4.20;3.90;;;14.20;90.10;;;;;;5013893;28;20206;-89
2023/05/13 00:10:59;;;;;;;4.27;3.83;;;14.10;90.20;;;;;;5031403;28;20177;-90
2023/05/13 00:13:25;;;;;;;3.87;3.57;;;14.00;90.70;;;;;;5032683;28;20560;-90
2023/05/13 00:15:51;;;;;;;3.77;3.47;;;13.90;91.10;;;;;;5015664;28;20249;-89
2023/05/13 00:18:16;;;;;;;3.60;3.40;;;13.90;91.40;;;;;;5016413;28;20522;-89
2023/05/13 00:20:42;;;;;;;4.03;3.53;;;14.00;90.90;;;;;;5033625;28;20193;-89
2023/05/13 00:23:08;;;;;;;3.90;3.60;;;14.00;90.90;;;;;;5034261;28;20209;-89
2023/05/13 00:25:34;;;;;;;4.77;3.63;;;14.00;90.40;;;;;;5034043;28;20371;-88
2023/05/13 00:28:00;;;;;;;3.90;3.57;;;14.00;90.30;;;;;;5034554;28;20221;-88
2023/05/13 00:30:25;;;;;;;4.20;3.80;;;14.00;89.70;;;;;;5032976;28;20208;-90
2023/05/13 00:32:51;;;;;;;3.97;3.57;;;14.00;90.20;;;;;;5032765;28;20197;-89
2023/05/13 00:35:17;;;;;;;5.70;3.80;;;14.00;90.30;;;;;;5032149;28;20187;-90
2023/05/13 00:37:43;;;;;;;3.50;3.30;;;14.00;90.60;;;;;;5031851;28;20219;-89
2023/05/13 00:40:22;;;;;;;3.60;3.40;;;14.00;90.20;;;;;;5033059;28;20188;-90
2023/05/13 00:42:48;;;;;;;3.80;3.50;;;14.00;90.10;;;;;;5032466;28;20200;-88
2023/05/13 00:45:14;;;;;;;3.93;3.63;;;14.00;89.70;;;;;;5033418;28;20188;-90
2023/05/13 00:47:40;;;;;;;3.67;3.37;;;14.00;89.60;;;;;;5038752;28;20215;-89
2023/05/13 00:50:08;;;;;;;3.70;3.40;;;14.00;90.00;;;;;;5032888;28;20542;-88
2023/05/13 00:52:35;;;;;;;3.60;3.30;;;14.10;89.40;;;;;;5033597;28;20235;-90
2023/05/13 00:55:02;;;;;;;3.57;3.27;;;14.10;89.30;;;;;;5033488;28;20248;-90
2023/05/13 00:57:28;;;;;;;3.37;3.17;;;14.10;88.70;;;;;;5031826;28;20180;-90
2023/05/13 00:59:54;;;;;;;3.80;3.50;;;14.10;88.10;;;;;;5030300;28;20193;-88
2023/05/13 01:02:33;;;;;;;3.33;3.13;;;14.10;88.30;;;;;;5029960;28;20630;-90
2023/05/13 01:05:25;;;;;;;3.60;3.40;;;14.10;88.60;;;;;;5030077;28;20498;-90
2023/05/13 01:08:02;;;;;;;3.57;3.30;;;14.10;88.30;;;;;;5011592;28;20227;-89
2023/05/13 01:10:31;;;;;;;3.73;3.43;;;14.10;88.60;;;;;;5029704;28;20612;-89
2023/05/13 01:13:02;;;;;;;3.47;3.27;;;14.10;88.20;;;;;;5031135;28;20197;-90
2023/05/13 01:15:29;;;;;;;4.23;3.93;;;14.00;88.60;;;;;;5033524;28;20184;-90
2023/05/13 01:18:04;;;;;;;4.80;3.50;;;14.00;88.60;;;;;;5032993;28;20612;-89
2023/05/13 01:20:30;;;;;;;3.97;3.40;;;14.00;89.40;;;;;;5021473;28;20631;-90
2023/05/13 01:22:56;;;;;;;3.90;3.60;;;14.00;88.70;;;;;;5012751;28;20205;-88
2023/05/13 01:25:22;;;;;;;3.87;3.57;;;14.00;89.00;;;;;;5021166;28;20194;-89
2023/05/13 01:27:49;;;;;;;4.53;3.47;;;14.00;88.80;;;;;;5033458;28;20267;-89
2023/05/13 01:30:15;;;;;;;4.00;3.70;;;14.00;89.50;;;;;;5037866;28;20229;-90
2023/05/13 01:32:41;;;;;;;4.00;3.70;;;14.00;89.20;;;;;;5036907;28;20182;-88
2023/05/13 01:35:09;;;;;;;3.80;3.47;;;14.00;89.10;;;;;;5037387;28;20197;-90
2023/05/13 01:37:36;;;;;;;3.77;3.50;;;13.90;89.50;;;;;;5036185;28;20614;-90
2023/05/13 01:40:01;;;;;;;3.80;3.50;;;14.00;89.50;;;;;;5036342;28;20256;-89
2023/05/13 01:42:29;;;;;;;4.17;3.47;;;14.00;89.50;;;;;;5036457;28;20205;-90
2023/05/13 01:44:54;;;;;;;4.00;3.70;;;14.00;89.60;;;;;;5037256;28;20225;-89
2023/05/13 01:47:20;;;;;;;4.20;3.80;;;14.00;90.00;;;;;;5036624;28;20649;-89
2023/05/13 01:49:45;;;;;;;3.97;3.53;;;13.90;90.00;;;;;;5036495;28;20712;-88
2023/05/13 01:52:11;;;;;;;4.10;3.80;;;13.90;89.90;;;;;;5036223;28;20813;-89
2023/05/13 01:54:37;;;;;;;3.70;3.43;;;14.00;89.70;;;;;;5034900;28;20259;-88
2023/05/13 01:57:03;;;;;;;3.60;3.40;;;13.90;89.50;;;;;;5033857;28;20501;-89
2023/05/13 01:59:28;;;;;;;3.33;3.13;;;13.90;89.60;;;;;;5015829;28;20235;-91
2023/05/13 02:01:54;;;;;;;3.87;3.57;;;13.90;90.00;;;;;;5033503;28;20455;-91
2023/05/13 02:04:20;;;;;;;4.27;3.97;;;13.80;90.10;;;;;;5016267;28;20214;-90
2023/05/13 02:06:46;;;;;;;4.40;3.90;;;13.90;90.70;;;;;;5038633;28;20186;-90
2023/05/13 02:09:12;;;;;;;3.93;3.63;;;13.80;90.00;;;;;;5035410;28;20510;-89
2023/05/13 02:11:37;;;;;;;4.33;3.93;;;13.80;89.80;;;;;;5038594;28;20651;-89
2023/05/13 02:14:03;;;;;;;4.00;3.70;;;13.70;90.40;;;;;;5036204;28;20196;-89
2023/05/13 02:16:29;;;;;;;5.23;3.63;;;13.70;90.00;;;;;;5035618;28;20184;-91
2023/05/13 02:18:55;;;;;;;4.17;3.77;;;13.70;90.00;;;;;;5036105;28;20547;-91
2023/05/13 02:21:21;;;;;;;6.00;3.83;;;13.70;90.30;;;;;;5017710;28;20243;-91
2023/05/13 02:23:46;;;;;;;4.13;3.80;;;13.70;90.40;;;;;;5035245;28;20262;-90
2023/05/13 02:26:12;;;;;;;4.33;3.93;;;13.60;90.40;;;;;;5036176;28;20188;-90
2023/05/13 02:28:37;;;;;;;4.20;3.80;;;13.50;90.90;;;;;;5035838;28;20514;-90
2023/05/13 02:31:03;;;;;;;4.60;4.20;;;13.50;91.50;;;;;;5036458;28;20654;-88
2023/05/13 02:33:29;;;;;;;4.23;3.90;;;13.50;91.80;;;;;;5036144;28;20216;-91
2023/05/13 02:35:54;;;;;;;5.27;3.80;;;13.40;91.00;;;;;;5035836;28;20251;-90
2023/05/13 02:38:20;;;;;;;4.10;3.70;;;13.40;91.00;;;;;;5016124;28;20192;-89
2023/05/13 02:40:45;;;;;;;6.13;4.20;;;13.40;91.10;;;;;;5014195;28;20189;-89
2023/05/13 02:43:11;;;;;;;4.87;4.10;;;13.30;91.10;;;;;;5015971;28;20630;-89
2023/05/13 02:45:39;;;;;;;4.53;4.23;;;13.30;91.20;;;;;;5033161;28;20181;-90
2023/05/13 02:48:05;;;;;;;4.20;3.80;;;13.20;91.30;;;;;;5034780;28;20236;-90
2023/05/13 02:50:30;;;;;;;4.50;4.10;;;13.30;91.50;;;;;;5035039;28;20583;-89
2023/05/13 02:52:56;;;;;;;4.17;3.83;;;13.20;91.30;;;;;;5032149;28;20222;-90
2023/05/13 02:55:22;;;;;;;4.43;4.10;;;13.20;91.70;;;;;;5033274;28;20587;-88
2023/05/13 02:57:47;;;;;;;4.20;3.80;;;13.30;91.60;;;;;;5033772;28;20223;-92
2023/05/13 03:00:13;;;;;;;4.50;4.03;;;13.20;91.60;;;;;;5035033;28;20553;-91
2023/05/13 03:02:39;;;;;;;4.27;3.97;;;13.20;91.90;;;;;;5035585;28;20262;-89
2023/05/13 03:05:05;;;;;;;4.03;3.73;;;13.10;92.60;;;;;;5036024;28;20612;-90
2023/05/13 03:07:31;;;;;;;4.80;4.10;;;12.90;93.70;;;;;;5018899;28;20303;-90
2023/05/13 03:09:56;;;;;;;4.50;4.10;;;12.90;94.60;;;;;;5037213;28;20217;-90
2023/05/13 03:12:22;;;;;;;4.70;4.40;;;12.80;95.40;;;;;;5035927;28;20170;-90
2023/05/13 03:14:48;;;;;;;4.77;3.80;;;12.70;96.40;;;;;;5036423;28;20237;-90
2023/05/13 03:17:13;;;;;;;4.20;3.90;;;12.60;97.10;;;;;;5037839;28;20207;-90
2023/05/13 03:19:40;;;;;;;4.37;4.07;;;12.50;97.80;;;;;;5036803;28;20189;-90
2023/05/13 03:22:05;;;;;;;4.57;4.27;;;12.50;98.10;;;;;;5018311;28;20186;-90
2023/05/13 03:24:31;;;;;;;4.33;3.93;;;12.50;98.50;;;;;;5037140;28;20201;-89
2023/05/13 03:26:57;;;;;;;4.80;4.40;;;12.40;98.30;;;;;;5037136;28;20185;-89
2023/05/13 03:29:23;;;;;;;4.90;4.27;;;12.50;97.70;;;;;;5034801;28;20214;-90
2023/05/13 03:31:49;;;;;;;4.40;4.10;;;12.60;97.80;;;;;;5035840;28;20185;-90
2023/05/13 03:34:15;;;;;;;4.50;4.20;;;12.60;97.30;;;;;;5036517;28;20209;-90
2023/05/13 03:36:41;;;;;;;4.63;4.30;;;12.50;96.90;;;;;;5036922;28;20192;-90
2023/05/13 03:39:07;;;;;;;5.13;4.13;;;12.40;97.20;;;;;;5036417;28;20205;-90
2023/05/13 03:41:32;;;;;;;4.70;4.17;;;12.40;97.70;;;;;;5036167;28;20276;-89
2023/05/13 03:43:58;;;;;;;4.17;3.87;;;12.50;97.90;;;;;;5037063;28;20218;-90
2023/05/13 03:46:26;;;;;;;4.77;4.30;;;12.50;97.40;;;;;;5017236;28;20181;-88
2023/05/13 03:48:52;;;;;;;4.50;4.10;;;12.50;96.90;;;;;;5034421;28;20233;-91
2023/05/13 03:51:18;;;;;;;4.10;3.77;;;12.60;96.40;;;;;;5033144;28;20171;-90
2023/05/13 03:53:43;;;;;;;4.40;4.10;;;12.50;96.20;;;;;;5032143;28;20372;-89
2023/05/13 03:56:09;;;;;;;4.80;4.10;;;12.40;96.70;;;;;;5032884;28;20258;-89
2023/05/13 03:58:35;;;;;;;4.60;4.30;;;12.10;98.40;;;;;;5033991;28;20185;-92
2023/05/13 04:01:01;;;;;;;4.67;4.27;;;12.00;99.80;;;;;;5034582;28;20188;-90
2023/05/13 04:03:27;;;;;;;4.80;4.30;;;12.00;99.90;;;;;;5017703;28;20529;-89
2023/05/13 04:05:52;;;;;;;4.83;4.37;;;11.90;99.90;;;;;;5035956;28;20641;-91
2023/05/13 04:08:18;;;;;;;4.60;4.20;;;11.90;99.90;;;;;;5034534;28;20220;-90
2023/05/13 04:10:44;;;;;;;4.60;4.23;;;11.90;99.90;;;;;;5034593;28;20481;-90
2023/05/13 04:13:10;;;;;;;5.57;5.00;;;11.90;99.90;;;;;;5035098;28;20225;-91
2023/05/13 04:15:35;;;;;;;7.37;4.50;;;12.00;99.90;;;;;;5034902;28;20631;-89
2023/05/13 04:18:01;;;;;;;4.40;4.10;;;12.00;99.70;;;;;;5016910;28;20238;-89
2023/05/13 04:20:28;;;;;;;5.07;4.23;;;11.90;99.90;;;;;;5034013;28;20542;-92
2023/05/13 04:22:53;;;;;;;5.07;4.57;;;11.90;99.90;;;;;;5015735;28;20205;-90
2023/05/13 04:25:19;;;;;;;4.73;4.33;;;11.90;99.90;;;;;;5034912;28;20655;-91
2023/05/13 04:27:46;;;;;;;4.87;4.47;;;11.90;99.90;;;;;;5034976;28;20266;-90
2023/05/13 04:30:12;;;;;;;4.60;4.20;;;12.10;99.90;;;;;;5034690;28;20178;-90
2023/05/13 04:32:38;;;;;;;6.07;4.27;;;12.10;98.30;;;;;;5016299;28;20206;-90
2023/05/13 04:35:06;;;;;;;4.60;4.27;;;12.10;98.40;;;;;;5035434;28;20177;-90
2023/05/13 04:37:32;;;;;;;4.53;4.23;;;12.30;97.70;;;;;;5033937;28;20201;-90
2023/05/13 04:39:58;;;;;;;4.57;4.27;;;12.20;97.80;;;;;;5034690;28;20192;-89
2023/05/13 04:42:23;;;;;;;4.50;4.10;;;12.30;97.30;;;;;;5034607;28;20667;-89
2023/05/13 04:44:49;;;;;;;4.70;4.30;;;12.20;97.60;;;;;;5033403;28;20180;-91
2023/05/13 04:47:15;;;;;;;4.70;4.40;;;12.20;97.80;;;;;;5031267;28;20206;-90
2023/05/13 04:49:41;;;;;;;5.00;4.60;;;12.20;98.50;;;;;;5030947;28;20285;-90
2023/05/13 04:52:07;;;;;;;6.20;4.13;;;12.20;98.10;;;;;;5031267;28;20174;-90
2023/05/13 04:54:38;;;;;;;4.50;4.20;;;12.20;98.40;;;;;;5031420;28;20217;-91
2023/05/13 04:57:04;;;;;;;4.83;4.50;;;12.30;98.30;;;;;;5013572;28;20200;-90
2023/05/13 04:59:30;;;;;;;5.63;4.53;;;12.30;97.60;;;;;;5032263;28;20205;-89
2023/05/13 05:01:56;;;;;;;5.20;4.63;;;12.30;97.90;;;;;;5033757;28;20189;-90
2023/05/13 05:04:21;;;;;;;4.83;4.43;;;12.30;97.50;;;;;;5037208;28;20209;-90
2023/05/13 05:06:47;;;;;;;4.50;4.20;;;12.20;98.00;;;;;;5038608;28;20420;-90
2023/05/13 05:09:13;;;;;;;4.47;4.10;;;12.20;98.60;;;;;;5020532;28;20681;-91
2023/05/13 05:11:39;;;;;;;5.43;5.03;;;12.20;98.30;;;;;;5037511;28;20188;-90
2023/05/13 05:14:04;;;;;;;4.93;4.43;;;12.10;98.50;;;;;;5038529;28;20193;-90
2023/05/13 05:16:30;;;;;;;5.03;4.60;;;12.00;99.10;;;;;;5037361;28;20191;-91
2023/05/13 05:18:56;;;;;;;5.17;4.70;;;12.00;98.40;;;;;;5040585;28;20185;-89
2023/05/13 05:21:22;;;;;;;5.27;4.77;;;12.00;98.60;;;;;;5020178;28;20223;-90
2023/05/13 05:23:47;;;;;;;5.30;4.90;;;12.10;96.50;;;;;;5037447;28;20236;-89
2023/05/13 05:26:13;;;;;;;4.87;4.47;;;12.20;96.30;;;;;;5037225;28;20279;-92
2023/05/13 05:28:41;;;;;;;4.97;4.57;;;12.20;96.30;;;;;;5038940;28;20551;-89
2023/05/13 05:31:08;;;;;;;5.37;4.83;;;12.20;96.40;;;;;;5041449;28;20651;-89
2023/05/13 05:33:34;;;;;;;4.70;4.30;;;12.20;96.60;;;;;;5022809;28;20197;-90
2023/05/13 05:36:00;;;;;;;5.23;4.73;;;12.20;94.70;;;;;;5042188;28;20638;-88
2023/05/13 05:38:26;;;;;;;4.73;4.33;;;12.10;95.80;;;;;;5039100;28;20202;-89
2023/05/13 05:40:52;;;;;;;4.33;4.07;;;12.20;96.70;;;;;;5039324;28;20176;-90
2023/05/13 05:43:27;;;;;;;4.80;4.40;;;12.10;96.20;;;;;;5037134;28;20227;-89
2023/05/13 05:45:52;;;;;;;4.37;4.07;;;12.10;96.40;;;;;;5017882;28;20180;-91
2023/05/13 05:48:18;;;;;;;4.77;4.30;;;12.20;95.00;;;;;;5000232;28;20274;-94
2023/05/13 05:50:43;;;;;;;4.67;4.27;;;12.30;94.30;;;;;;5019409;28;20265;-91
2023/05/13 05:53:09;;;;;;;4.77;4.37;;;12.30;95.00;;;;;;5021859;28;20232;-91
2023/05/13 05:55:35;;;;;;;4.80;4.40;;;12.40;93.30;;;;;;5020082;28;20181;-91
2023/05/13 05:58:04;;;;;;;4.67;4.23;;;12.50;93.90;;;;;;5019774;28;20207;-92
2023/05/13 06:00:30;;;;;;;5.13;4.47;;;12.40;93.00;;;;;;5029123;28;20268;-91
2023/05/13 06:02:56;;;;;;;4.80;4.40;;;12.50;92.80;;;;;;5038801;28;20271;-88
2023/05/13 06:05:22;;;;;;;4.90;4.50;;;12.60;92.40;;;;;;5038228;28;20188;-88
2023/05/13 06:07:47;;;;;;;4.50;4.20;;;12.70;92.80;;;;;;5038985;28;20216;-89
2023/05/13 06:10:13;;;;;;;4.77;4.47;;;12.80;91.80;;;;;;5038984;28;20181;-89
2023/05/13 06:12:40;;;;;;;5.00;4.57;;;12.90;88.80;;;;;;5038704;28;20185;-91
2023/05/13 06:15:09;;;;;;;4.47;4.17;;;13.00;86.00;;;;;;5038704;28;20176;-89
2023/05/13 06:17:38;;;;;;;5.37;4.17;;;13.10;86.80;;;;;;5038878;28;20198;-89
2023/05/13 06:20:04;;;;;;;4.70;4.30;;;13.30;85.90;;;;;;5036642;28;20200;-90
2023/05/13 06:22:30;;;;;;;6.00;4.23;;;13.30;81.80;;;;;;5037878;28;20193;-90
2023/05/13 06:24:56;;;;;;;4.17;3.87;;;13.40;82.60;;;;;;5037468;28;20544;-90
2023/05/13 06:27:22;;;;;;;4.57;4.10;;;13.40;83.00;;;;;;5037262;28;20214;-89
2023/05/13 06:29:47;;;;;;;4.30;3.97;;;13.50;81.80;;;;;;5037107;28;20181;-90
2023/05/13 06:32:13;;;;;;;4.83;4.43;;;13.60;81.60;;;;;;5037332;28;20178;-89
2023/05/13 06:34:41;;;;;;;4.20;3.90;;;13.50;81.20;;;;;;5037389;28;20226;-88
2023/05/13 06:37:07;;;;;;;4.10;3.80;;;13.60;81.30;;;;;;5037618;28;20205;-89
2023/05/13 06:39:32;;;;;;;4.40;4.10;;;13.80;81.00;;;;;;5035174;28;20569;-90
2023/05/13 06:41:58;;;;;;;4.33;4.03;;;13.90;78.10;;;;;;5035214;28;20192;-90
2023/05/13 06:44:24;;;;;;;4.37;4.07;;;13.90;75.50;;;;;;5013974;28;20216;-90
2023/05/13 06:46:49;;;;;;;4.63;4.33;;;14.00;74.30;;;;;;5024669;28;20434;-88
2023/05/13 06:49:15;;;;;;;4.33;4.03;;;14.00;74.40;;;;;;5035975;28;20584;-89
2023/05/13 06:51:41;;;;;;;5.40;3.80;;;14.10;75.20;;;;;;5034387;28;20190;-90
2023/05/13 06:54:06;;;;;;;4.80;4.40;;;14.20;74.10;;;;;;5035208;28;20198;-90
2023/05/13 06:56:33;;;;;;;4.40;4.00;;;14.20;73.00;;;;;;5036830;28;20184;-90
2023/05/13 06:58:59;;;;;;;4.67;4.30;;;14.30;73.50;;;;;;5018855;28;20191;-89
2023/05/13 07:01:25;;;;;;;4.50;4.20;;;14.30;74.00;;;;;;5037005;28;20321;-89
2023/05/13 07:03:50;;;;;;;4.67;4.27;;;14.30;72.10;;;;;;5036690;28;20203;-90
2023/05/13 07:06:16;;;;;;;4.37;4.07;;;14.40;71.90;;;;;;5036566;28;20275;-89
2023/05/13 07:08:42;;;;;;;4.67;4.27;;;14.40;72.90;;;;;;5035570;28;20211;-91
2023/05/13 07:11:07;;;;;;;4.97;4.13;;;14.60;72.30;;;;;;5036758;28;20185;-91
2023/05/13 07:13:33;;;;;;;4.47;4.07;;;14.70;71.20;;;;;;5036217;28;20199;-91
2023/05/13 07:16:01;;;;;;;4.20;3.90;;;14.70;70.20;;;;;;5037806;28;20187;-90
2023/05/13 07:18:27;;;;;;;4.57;4.27;;;14.70;70.30;;;;;;5037920;28;20188;-89
2023/05/13 07:20:55;;;;;;;4.23;3.83;;;14.80;70.80;;;;;;5037053;28;20206;-89
2023/05/13 07:23:21;;;;;;;4.60;4.20;;;14.80;70.30;;;;;;5037580;28;20275;-89
2023/05/13 07:25:46;;;;;;;4.30;4.00;;;14.80;69.80;;;;;;5017326;28;20187;-89
2023/05/13 07:28:12;;;;;;;5.57;4.03;;;14.80;70.10;;;;;;5036725;28;20206;-88
2023/05/13 07:30:41;;;;;;;4.30;4.00;;;14.80;69.70;;;;;;5018035;28;20181;-89
2023/05/13 07:33:06;;;;;;;4.43;3.73;;;14.70;69.10;;;;;;5034970;28;20200;-89
2023/05/13 07:35:32;;;;;;;4.20;3.90;;;14.80;70.30;;;;;;5016056;28;20239;-88
2023/05/13 07:37:58;;;;;;;5.07;4.00;;;14.80;70.50;;;;;;5032990;28;20204;-87
2023/05/13 07:40:23;;;;;;;5.67;4.53;;;14.90;69.70;;;;;;5033777;28;20646;-89
2023/05/13 07:42:49;;;;;;;4.20;3.90;;;14.80;70.50;;;;;;5033839;28;20208;-89
2023/05/13 07:45:14;;;;;;;4.90;4.57;;;14.80;71.50;;;;;;5021055;28;20194;-89
2023/05/13 07:47:40;;;;;;;5.00;4.30;;;15.00;70.90;;;;;;5014416;28;20222;-89
2023/05/13 07:50:06;;;;;;;4.20;3.90;;;15.00;71.30;;;;;;4997568;28;20185;-90
2023/05/13 07:52:32;;;;;;;4.60;4.30;;;15.00;70.40;;;;;;5015347;28;20182;-89
2023/05/13 07:54:57;;;;;;;7.70;4.60;;;15.00;70.40;;;;;;5019404;28;20489;-88
2023/05/13 07:57:23;;;;;;;4.33;4.00;;;15.20;69.30;;;;;;5036190;28;20181;-90
2023/05/13 07:59:49;;;;;;;4.30;4.00;;;15.10;69.30;;;;;;5035768;28;20315;-91
2023/05/13 08:02:14;;;;;;;4.83;4.40;;;15.20;68.90;;;;;;5035341;28;20688;-90
2023/05/13 08:04:40;;;;;;;4.60;4.30;;;15.30;68.70;;;;;;5036407;28;20201;-90
2023/05/13 08:07:06;;;;;;;4.17;3.77;;;15.20;69.30;;;;;;5033794;28;20417;-91
2023/05/13 08:09:31;;;;;;;4.80;4.40;;;15.30;69.00;;;;;;5034934;28;20199;-91
2023/05/13 08:11:57;;;;;;;4.53;4.23;;;15.30;68.50;;;;;;5034594;28;20189;-91
2023/05/13 08:14:23;;;;;;;6.23;4.07;;;15.40;67.80;;;;;;5017722;28;20211;-90
2023/05/13 08:16:48;;;;;;;4.83;4.43;;;15.30;68.50;;;;;;5034944;28;20174;-91
2023/05/13 08:19:14;;;;;;;4.70;4.30;;;15.40;68.50;;;;;;5020044;28;20201;-91
2023/05/13 08:21:40;;;;;;;4.63;4.33;;;15.50;68.20;;;;;;5025043;28;20242;-90
2023/05/13 08:24:06;;;;;;;5.20;4.80;;;15.50;68.40;;;;;;5015323;28;20198;-90
2023/05/13 08:26:32;;;;;;;5.10;4.70;;;15.50;68.50;;;;;;5016887;28;20195;-90
2023/05/13 08:28:58;;;;;;;4.93;4.53;;;15.50;69.20;;;;;;5021251;28;20228;-91
2023/05/13 08:31:24;;;;;;;5.37;4.63;;;15.60;68.80;;;;;;5034084;28;20189;-91
2023/05/13 08:33:52;;;;;;;6.07;4.53;;;15.70;68.60;;;;;;5014826;28;20197;-89
2023/05/13 08:36:18;;;;;;;4.77;4.37;;;15.80;68.40;;;;;;5015115;28;20180;-90
2023/05/13 08:38:43;;;;;;;4.47;4.07;;;15.80;68.50;;;;;;5030994;28;20198;-90
2023/05/13 08:41:15;;;;;;;7.07;4.57;;;15.80;69.00;;;;;;5035281;28;20187;-91
2023/05/13 08:43:42;;;;;;;5.30;4.27;;;15.90;68.50;;;;;;5034525;28;20243;-90
2023/05/13 08:46:10;;;;;;;4.80;4.40;;;15.90;68.70;;;;;;5034572;28;20397;-90
2023/05/13 08:48:38;;;;;;;7.23;4.57;;;15.90;68.60;;;;;;5035195;28;20370;-90
2023/05/13 08:51:04;;;;;;;4.23;3.87;;;16.20;68.50;;;;;;5037585;28;20179;-89
2023/05/13 08:53:30;;;;;;;5.50;4.50;;;16.30;67.70;;;;;;5036556;28;20232;-90
2023/05/13 08:55:57;;;;;;;4.77;4.37;;;16.40;67.70;;;;;;5035298;28;20188;-90
2023/05/13 08:58:24;;;;;;;6.23;4.67;;;16.40;66.80;;;;;;5035926;28;20174;-90
2023/05/13 09:00:51;;;;;;;4.87;4.47;;;16.50;67.20;;;;;;5036076;28;20228;-89
2023/05/13 09:03:18;;;;;;;4.70;4.40;;;16.50;66.50;;;;;;5035194;28;20244;-91
2023/05/13 09:05:44;;;;;;;5.10;4.60;;;16.70;64.20;;;;;;5036061;28;20178;-90
2023/05/13 09:08:11;;;;;;;4.57;4.17;;;16.70;65.20;;;;;;5036126;28;20627;-90
2023/05/13 09:10:37;;;;;;;4.77;4.37;;;16.70;64.80;;;;;;5037268;28;20175;-91
2023/05/13 09:13:03;;;;;;;4.40;4.00;;;16.90;64.20;;;;;;5037292;28;20199;-89
2023/05/13 09:15:29;;;;;;;4.53;4.20;;;17.00;63.00;;;;;;5018707;28;20194;-90
2023/05/13 09:18:00;;;;;;;4.03;3.67;;;17.20;61.80;;;;;;5037053;28;20174;-90
2023/05/13 09:20:27;;;;;;;4.57;4.17;;;17.40;60.90;;;;;;5036763;28;20385;-91
2023/05/13 09:22:59;;;;;;;4.67;4.27;;;17.40;61.70;;;;;;5037487;28;20286;-90
2023/05/13 09:25:25;;;;;;;4.47;3.93;;;17.50;61.30;;;;;;5038346;28;20311;-90
2023/05/13 09:27:57;;;;;;;4.60;4.30;;;17.60;62.00;;;;;;5036871;28;20227;-91
2023/05/13 09:30:24;;;;;;;4.22;3.92;;;17.80;60.00;;;;;;5036425;28;20187;-89
2023/05/13 09:33:18;;;;;;;5.03;4.13;;;17.80;59.40;;;;;;5036177;28;20776;-89
2023/05/13 09:35:53;;;;;;;4.40;4.10;;;18.00;59.90;;;;;;5019185;28;20176;-90
2023/05/13 09:38:23;;;;;;;4.47;4.10;;;18.10;57.80;;;;;;5037339;28;20299;-89
2023/05/13 09:40:59;;;;;;;4.65;4.25;;;18.30;58.90;;;;;;5036882;28;20479;-90
2023/05/13 09:43:27;;;;;;;4.80;4.40;;;18.30;58.60;;;;;;5038035;28;20688;-91
2023/05/13 09:46:00;;;;;;;4.30;4.00;;;18.40;57.80;;;;;;5016828;28;20181;-89
2023/05/13 09:48:28;;;;;;;4.35;3.92;;;18.30;57.80;;;;;;5017682;28;20209;-92
2023/05/13 09:50:55;;;;;;;4.60;4.20;;;18.30;57.50;;;;;;5034965;28;20240;-90
2023/05/13 09:53:20;;;;;;;4.35;3.95;;;18.30;57.80;;;;;;5038814;28;20208;-91
2023/05/13 09:55:51;;;;;;;4.43;4.03;;;18.30;57.70;;;;;;5040101;28;20377;-88
2023/05/13 09:58:21;;;;;;;4.00;3.70;;;18.40;58.10;;;;;;5022440;28;20748;-90
2023/05/13 10:00:47;;;;;;;5.45;3.97;;;18.50;58.20;;;;;;5040478;28;20674;-90
2023/05/13 10:03:14;;;;;;;4.50;4.20;;;18.40;58.00;;;;;;5039620;28;20247;-90
2023/05/13 10:05:41;;;;;;;4.05;3.78;;;18.50;57.40;;;;;;5040395;28;20208;-90
2023/05/13 10:08:09;;;;;;;4.57;3.40;;;18.60;57.50;;;;;;5039118;28;20891;-89
2023/05/13 10:10:35;;;;;;;4.10;3.80;;;18.60;55.80;;;;;;5039527;28;20206;-89
2023/05/13 10:13:07;;;;;;;4.13;3.72;;;18.60;57.80;;;;;;5039486;28;20216;-89
2023/05/13 10:15:33;;;;;;;4.13;3.83;;;18.70;56.50;;;;;;5040093;28;20181;-91
2023/05/13 10:18:00;;;;;;;5.70;3.60;;;18.80;55.00;;;;;;5041131;28;20211;-89
2023/05/13 10:20:26;;;;;;;4.25;3.85;;;18.90;54.50;;;;;;5031812;28;20180;-89
2023/05/13 10:22:53;;;;;;;3.85;3.55;;;18.90;56.40;;;;;;5039178;28;20224;-89
2023/05/13 10:25:19;;;;;;;3.60;3.40;;;19.10;55.40;;;;;;5038041;28;20188;-90
2023/05/13 10:27:46;;;;;;;3.63;3.42;;;19.10;54.50;;;;;;5038198;28;20204;-90
2023/05/13 10:30:12;;;;;;;3.80;3.60;;;19.10;55.00;;;;;;5038069;28;20180;-90
2023/05/13 10:32:38;;;;;;;3.45;3.15;;;19.30;53.30;;;;;;5037492;28;20174;-90
2023/05/13 10:35:10;;;;;;;3.85;3.55;;;19.40;53.50;;;;;;5037001;28;20173;-90
2023/05/13 10:37:54;;;;;;;3.63;3.40;;;19.60;53.00;;;;;;5033993;28;20192;-90
2023/05/13 10:40:32;;;;;;;3.80;3.50;;;19.70;52.50;;;;;;5017916;28;20315;-90
2023/05/13 10:43:33;;;;;;;3.50;3.30;;;19.50;51.40;;;;;;5040158;28;20833;-89
2023/05/13 10:46:05;;;;;;;4.05;3.60;;;19.40;52.10;;;;;;4959927;28;20790;-89
2023/05/13 10:48:48;;;;;;;3.40;3.20;;;19.20;53.50;;;;;;5027567;28;20657;-90
2023/05/13 10:51:15;;;;;;;3.88;3.60;;;19.30;52.90;;;;;;5038269;28;20181;-90
2023/05/13 10:53:49;;;;;;;3.58;3.38;;;19.10;54.00;;;;;;5037015;28;20228;-88
2023/05/13 10:56:18;;;;;;;3.72;3.53;;;19.00;55.20;;;;;;5040955;28;20169;-89
2023/05/13 10:59:02;;;;;;;3.90;3.50;;;19.20;53.40;;;;;;5038528;28;20181;-87
2023/05/13 11:01:30;;;;;;;3.53;3.22;;;19.20;53.20;;;;;;5019351;28;20193;-88
2023/05/13 11:04:01;;;;;;;3.78;3.38;;;19.30;52.40;;;;;;5037790;28;20270;-87
2023/05/13 11:06:38;;;;;;;3.70;3.40;;;19.40;52.70;;;;;;5039014;28;20189;-87
2023/05/13 11:09:14;;;;;;;3.70;3.40;;;19.40;53.10;;;;;;5022400;28;20211;-88
2023/05/13 11:11:40;;;;;;;3.88;3.53;;;19.30;53.70;;;;;;5039369;28;20173;-85
2023/05/13 11:14:19;;;;;;;3.85;3.55;;;19.40;54.30;;;;;;5038536;28;20269;-88
2023/05/13 11:16:53;;;;;;;3.25;3.05;;;19.50;52.80;;;;;;5016502;28;20193;-90
2023/05/13 11:19:26;;;;;;;3.40;3.05;;;19.20;54.30;;;;;;5036446;28;20180;-91
2023/05/13 11:22:13;;;;;;;4.00;3.70;;;19.30;53.60;;;;;;5036368;28;20181;-92
2023/05/13 11:24:40;;;;;;;3.88;3.65;;;19.30;54.00;;;;;;5035742;28;20212;-90
2023/05/13 11:27:21;;;;;;;3.50;3.20;;;19.40;53.70;;;;;;5037632;28;20177;-91
2023/05/13 11:29:51;;;;;;;3.70;3.50;;;19.60;53.10;;;;;;5037822;28;20250;-90
2023/05/13 11:32:55;;;;;;;3.70;3.38;;;19.70;52.70;;;;;;5039383;28;20207;-90
2023/05/13 11:35:31;;;;;;;3.50;3.30;;;19.60;53.60;;;;;;5037813;28;20654;-90
2023/05/13 11:37:59;;;;;;;3.97;3.67;;;19.80;52.30;;;;;;5037706;28;20698;-90
2023/05/13 11:40:30;;;;;;;3.88;3.58;;;19.70;52.40;;;;;;5037756;28;20178;-91
2023/05/13 11:42:57;;;;;;;5.55;3.83;;;19.60;52.80;;;;;;5036860;28;20208;-91
2023/05/13 11:45:24;;;;;;;3.40;3.20;;;19.50;52.20;;;;;;5038638;28;20694;-89
2023/05/13 11:47:51;;;;;;;3.50;3.30;;;19.40;52.10;;;;;;5036492;28;20300;-91
2023/05/13 11:50:18;;;;;;;3.90;3.60;;;19.50;52.40;;;;;;5037492;28;20195;-89
2023/05/13 11:52:44;;;;;;;3.92;3.70;;;19.70;52.40;;;;;;5037824;28;20173;-92
2023/05/13 11:55:10;;;;;;;3.53;3.33;;;19.60;52.50;;;;;;5035044;28;20185;-88
2023/05/13 11:57:35;;;;;;;4.63;4.10;;;19.90;51.90;;;;;;5019283;28;20189;-86
2023/05/13 12:00:01;;;;;;;4.28;3.97;;;20.30;50.60;;;;;;5020145;28;20179;-90
2023/05/13 12:02:29;;;;;;;4.10;3.80;;;20.40;50.70;;;;;;5035989;28;20656;-87
2023/05/13 12:04:59;;;;;;;4.18;3.85;;;20.30;50.60;;;;;;5033972;28;20183;-83
2023/05/13 12:07:25;;;;;;;4.07;3.78;;;20.60;49.90;;;;;;5035840;28;20224;-88
2023/05/13 12:09:52;;;;;;;4.20;3.90;;;20.80;50.40;;;;;;5039723;28;20190;-89
2023/05/13 12:12:19;;;;;;;4.03;3.58;;;20.90;48.30;;;;;;5037469;28;20200;-89
2023/05/13 12:14:48;;;;;;;4.05;3.67;;;20.90;49.40;;;;;;5039449;28;20658;-90
2023/05/13 12:17:15;;;;;;;3.80;3.60;;;21.00;48.90;;;;;;5035236;28;20489;-90
2023/05/13 12:20:16;;;;;;;4.05;3.70;;;21.30;49.30;;;;;;5034144;28;20266;-86
2023/05/13 12:22:42;;;;;;;4.00;3.70;;;21.90;47.10;;;;;;5021044;28;20183;-91
2023/05/13 12:25:46;;;;;;;4.38;3.97;;;22.00;46.80;;;;;;5037235;28;20176;-91
2023/05/13 12:28:16;;;;;;;4.35;4.15;;;22.00;46.70;;;;;;5038005;28;20208;-91
2023/05/13 12:30:47;;;;;;;4.35;3.97;;;22.30;43.90;;;;;;5038409;28;20177;-83
2023/05/13 12:33:15;;;;;;;4.22;4.03;;;22.30;44.10;;;;;;5017901;28;20227;-89
2023/05/13 12:35:41;;;;;;;4.43;4.13;;;22.20;44.70;;;;;;5019721;28;20211;-90
2023/05/13 12:38:12;;;;;;;4.18;3.80;;;21.80;45.10;;;;;;5036605;28;20193;-90
2023/05/13 12:40:38;;;;;;;4.10;3.80;;;21.80;46.30;;;;;;5035770;28;20165;-89
2023/05/13 12:43:03;;;;;;;4.45;4.15;;;21.90;45.90;;;;;;5035890;28;20307;-91
2023/05/13 12:45:31;;;;;;;4.15;3.85;;;21.70;46.60;;;;;;5028046;28;20670;-90
2023/05/13 12:47:58;;;;;;;4.30;3.90;;;22.00;48.10;;;;;;5033006;28;20216;-90
2023/05/13 12:50:25;;;;;;;4.22;3.95;;;22.40;46.80;;;;;;5018964;28;20184;-90